»·PEaware :: N313KP KSNA-KCRQ

N313KP :: KSNA-KCRQ

FLIGHT INFORMATION

Flight Status: Arrived
Operator: Privately registered:
United States
More flights under this callsign
Pilot: Erik A. (17503)
Aircraft: BEECH AIRCRAFT BONANZA
(BE35)
More flights by this aircraft type
Origin: KSNA John Wayne-Orange Co
United States
Destination: KCRQ McClellan-Palomar
United States
More flights between these airports :: More routes between these airports
Route: +V23 OCN
File this flight plan on PilotEdge
Remarks: Rating I-2
Altitude:
(Current/Filed)
5,000ft
Speed:
(Current/Filed)
130kts
Departed: 13-Feb-20 11:10 AM
Arrived: 13-Feb-20 11:49 AM
Distance/Time
Traveled:
44nm/0:39
Distance/Time
To Go:
Arrived

Flight Plot

Page will automatically refresh every two minutes.


Map Options




Map Legend


Flown Route
Filed Route
Departure Airport
Arrival Airport
Navaid (VOR, NDB)
Fix

Horizontal Profiles

Position Reports

Time Latitude Longitude Heading Altitude Ground
Speed
13-Feb-20 10:52 33.665745 -117.873059 36 59ft 0kts
13-Feb-20 10:53 33.665746 -117.873058 36 59ft 0kts
13-Feb-20 10:54 33.665748 -117.873057 36 59ft 0kts
13-Feb-20 10:55 33.665940 -117.873156 308 59ft 2kts
13-Feb-20 10:56 33.665954 -117.873176 309 59ft 0kts
13-Feb-20 10:57 33.666030 -117.873279 315 59ft 2kts
13-Feb-20 10:58 33.667215 -117.872855 33 59ft 6kts
13-Feb-20 10:59 33.668778 -117.871273 41 59ft 7kts
13-Feb-20 11:00 33.670508 -117.869498 39 59ft 8kts
13-Feb-20 11:01 33.671815 -117.868315 29 59ft 5kts
13-Feb-20 11:02 33.673371 -117.867025 16 59ft 7kts
13-Feb-20 11:03 33.675215 -117.866395 27 59ft 7kts
13-Feb-20 11:04 33.677211 -117.865137 28 59ft 8kts
13-Feb-20 11:05 33.679295 -117.863817 28 59ft 8kts
13-Feb-20 11:06 33.679961 -117.863716 296 59ft 0kts
13-Feb-20 11:07 33.679963 -117.863722 296 59ft 0kts
13-Feb-20 11:08 33.679965 -117.863728 296 59ft 0kts
13-Feb-20 11:09 33.676970 -117.866179 207 59ft 64kts
13-Feb-20 11:10 33.655651 -117.875226 189 764ft 89kts
13-Feb-20 11:11 33.631789 -117.881277 187 1669ft 88kts
13-Feb-20 11:12 33.607056 -117.886704 188 2612ft 93kts
13-Feb-20 11:13 33.581846 -117.893357 188 3625ft 94kts
13-Feb-20 11:14 33.556364 -117.900738 193 4289ft 94kts
13-Feb-20 11:15 33.532760 -117.901158 109 4837ft 97kts
13-Feb-20 11:16 33.525101 -117.867726 107 5077ft 114kts
13-Feb-20 11:17 33.516154 -117.828650 106 5073ft 122kts
13-Feb-20 11:18 33.504962 -117.789640 107 5103ft 124kts
13-Feb-20 11:19 33.497280 -117.748335 100 5057ft 129kts
13-Feb-20 11:20 33.483087 -117.709387 128 5088ft 126kts
13-Feb-20 11:21 33.460172 -117.675635 128 5195ft 134kts
13-Feb-20 11:22 33.434523 -117.641451 134 5054ft 140kts
13-Feb-20 11:23 33.406493 -117.610462 135 4897ft 133kts
13-Feb-20 11:24 33.380258 -117.579528 133 4954ft 132kts
13-Feb-20 11:25 33.355164 -117.548719 133 4996ft 131kts
13-Feb-20 11:26 33.328767 -117.518603 136 4875ft 130kts
13-Feb-20 11:27 33.302925 -117.489777 134 4906ft 122kts
13-Feb-20 11:28 33.291852 -117.451970 105 4983ft 124kts
13-Feb-20 11:29 33.284824 -117.411250 101 5112ft 126kts
13-Feb-20 11:30 33.276587 -117.369734 104 5092ft 128kts
13-Feb-20 11:31 33.266705 -117.327996 107 5071ft 130kts
13-Feb-20 11:32 33.256361 -117.286152 106 5144ft 137kts
13-Feb-20 11:33 33.248736 -117.249318 104 5051ft 135kts
13-Feb-20 11:34 33.239286 -117.206943 104 4996ft 129kts
13-Feb-20 11:35 33.230313 -117.165078 105 4978ft 128kts
13-Feb-20 11:36 33.221639 -117.123580 103 4936ft 128kts
13-Feb-20 11:37 33.213087 -117.082395 104 4744ft 128kts
13-Feb-20 11:38 33.204534 -117.041018 102 4136ft 126kts
13-Feb-20 11:39 33.188726 -117.008646 179 3549ft 125kts
13-Feb-20 11:40 33.167697 -117.032808 247 3564ft 112kts
13-Feb-20 11:41 33.162086 -117.071722 257 3678ft 122kts
13-Feb-20 11:42 33.154674 -117.112849 256 3345ft 129kts
13-Feb-20 11:43 33.148355 -117.152735 258 2603ft 113kts
13-Feb-20 11:44 33.143019 -117.188212 259 1850ft 99kts
13-Feb-20 11:45 33.137744 -117.220534 258 1351ft 101kts
13-Feb-20 11:46 33.132727 -117.252180 261 739ft 93kts
13-Feb-20 11:47 33.128523 -117.278510 259 303ft 50kts
13-Feb-20 11:48 33.127180 -117.283048 220 303ft 0kts
13-Feb-20 11:49 33.127000 -117.282678 79 303ft 5kts
13-Feb-20 11:50 33.127319 -117.280643 78 303ft 6kts
13-Feb-20 11:51 33.127707 -117.278251 78 303ft 7kts
13-Feb-20 11:52 33.128103 -117.275724 78 303ft 7kts
13-Feb-20 11:53 33.127916 -117.274827 346 303ft 0kts
13-Feb-20 11:54 33.127918 -117.274828 346 303ft 0kts
13-Feb-20 11:55 33.127920 -117.274829 346 303ft 0kts
13-Feb-20 11:56 33.127923 -117.274829 346 303ft 0kts
13-Feb-20 11:57 33.127924 -117.274830 346 303ft 0kts

Navigation Log

Ident Type
Flight plan parsing failed, navigation log unavailable